Time;durP1;ratioP1;P1;durP2;ratioP2;P2;SDS_P1;SDS_P2;PMS_P1;PMS_P2;Temp;Humidity;BMP_temperature;BMP_pressure;BME280_temperature;BME280_humidity;BME280_pressure;Samples;Min_cycle;Max_cycle;Signal;HPM_P1;HPM_P2
2023/02/03 00:00:15;;;;;;;;;;;;;;;;;;4945743;28;19961;-82
2023/02/03 00:02:41;;;;;;;;;;;;;;;;;;4946354;28;19973;-82
2023/02/03 00:05:08;;;;;;;;;;;;;;;;;;4937713;28;19918;-81
2023/02/03 00:07:34;;;;;;;;;;;;;;;;;;4945361;28;19914;-81
2023/02/03 00:10:01;;;;;;;;;;;;;;;;;;4970700;28;19925;-80
2023/02/03 00:12:27;;;;;;;;;;;;;;;;;;4950241;28;19924;-81
2023/02/03 00:14:53;;;;;;;;;;;;;;;;;;4951534;28;19964;-82
2023/02/03 00:17:20;;;;;;;;;;;;;;;;;;4956911;28;19957;-82
2023/02/03 00:19:46;;;;;;;;;;;;;;;;;;4970852;28;19981;-82
2023/02/03 00:22:12;;;;;;;;;;;;;;;;;;4946745;28;19922;-81
2023/02/03 00:24:38;;;;;;;;;;;;;;;;;;4935444;28;19929;-83
2023/02/03 00:27:05;;;;;;;;;;;;;;;;;;4947260;28;19925;-82
2023/02/03 00:29:31;;;;;;;;;;;;;;;;;;4948219;28;20433;-80
2023/02/03 00:31:57;;;;;;;;;;;;;;;;;;4945662;28;20012;-82
2023/02/03 00:34:24;;;;;;;;;;;;;;;;;;4950002;28;20416;-83
2023/02/03 00:36:50;;;;;;;;;;;;;;;;;;4923208;28;19922;-83
2023/02/03 00:39:16;;;;;;;;;;;;;;;;;;4944073;28;19925;-82
2023/02/03 00:41:42;;;;;;;;;;;;;;;;;;4950082;28;19926;-82
2023/02/03 00:44:09;;;;;;;;;;;;;;;;;;4965867;28;19922;-82
2023/02/03 00:46:35;;;;;;;;;;;;;;;;;;4964461;28;20392;-82
2023/02/03 00:49:01;;;;;;;;;;;;;;;;;;4932283;28;19922;-82
2023/02/03 00:51:27;;;;;;;;;;;;;;;;;;4966081;28;19925;-81
2023/02/03 00:53:54;;;;;;;;;;;;;;;;;;4955168;28;19976;-81
2023/02/03 00:56:20;;;;;;;;;;;;;;;;;;4949158;28;20589;-82
2023/02/03 00:58:46;;;;;;;;;;;;;;;;;;4942799;28;19972;-82
2023/02/03 01:01:12;;;;;;;;;;;;;;;;;;4946179;28;19923;-82
2023/02/03 01:03:39;;;;;;;;;;;;;;;;;;4964406;28;19922;-83
2023/02/03 01:06:05;;;;;;;;;;;;;;;;;;4950888;28;19930;-82
2023/02/03 01:08:31;;;;;;;;;;;;;;;;;;4968994;28;20645;-82
2023/02/03 01:10:57;;;;;;;;;;;;;;;;;;4940484;28;20219;-82
2023/02/03 01:13:23;;;;;;;;;;;;;;;;;;4971243;28;19977;-83
2023/02/03 01:15:50;;;;;;;;;;;;;;;;;;4942853;28;20413;-83
2023/02/03 01:18:16;;;;;;;;;;;;;;;;;;4974513;28;19965;-83
2023/02/03 01:20:42;;;;;;;;;;;;;;;;;;4959916;28;19957;-82
2023/02/03 01:23:08;;;;;;;;;;;;;;;;;;4948240;28;19927;-81
2023/02/03 01:25:35;;;;;;;;;;;;;;;;;;4946583;28;20309;-81
2023/02/03 01:28:01;;;;;;;;;;;;;;;;;;4943185;28;19921;-81
2023/02/03 01:30:27;;;;;;;;;;;;;;;;;;4960196;28;20646;-82
2023/02/03 01:32:53;;;;;;;;;;;;;;;;;;4965773;28;20453;-81
2023/02/03 01:35:20;;;;;;;;;;;;;;;;;;4948830;28;19914;-80
2023/02/03 01:37:46;;;;;;;;;;;;;;;;;;4930043;28;19954;-82
2023/02/03 01:40:12;;;;;;;;;;;;;;;;;;4938496;28;19937;-82
2023/02/03 01:42:38;;;;;;;;;;;;;;;;;;4930167;28;19934;-82
2023/02/03 01:45:04;;;;;;;;;;;;;;;;;;4952385;28;19924;-84
2023/02/03 01:47:31;;;;;;;;;;;;;;;;;;4920096;28;19918;-81
2023/02/03 01:49:57;;;;;;;;;;;;;;;;;;4957928;28;19922;-81
2023/02/03 01:52:23;;;;;;;;;;;;;;;;;;4929895;28;20001;-81
2023/02/03 01:54:49;;;;;;;;;;;;;;;;;;4950235;28;19919;-81
2023/02/03 01:57:16;;;;;;;;;;;;;;;;;;4953973;28;20055;-80
2023/02/03 01:59:42;;;;;;;;;;;;;;;;;;4964459;28;20565;-81
2023/02/03 02:02:08;;;;;;;;;;;;;;;;;;4959953;28;19950;-80
2023/02/03 02:04:34;;;;;;;;;;;;;;;;;;4965989;28;19956;-79
2023/02/03 02:07:00;;;;;;;;;;;;;;;;;;4958023;28;19918;-80
2023/02/03 02:09:27;;;;;;;;;;;;;;;;;;4961913;28;19918;-81
2023/02/03 02:11:53;;;;;;;;;;;;;;;;;;4953413;28;19926;-82
2023/02/03 02:14:19;;;;;;;;;;;;;;;;;;4960694;28;20354;-82
2023/02/03 02:16:45;;;;;;;;;;;;;;;;;;4976894;28;19926;-82
2023/02/03 02:19:12;;;;;;;;;;;;;;;;;;4980074;28;19949;-82
2023/02/03 02:21:38;;;;;;;;;;;;;;;;;;4950614;28;19922;-81
2023/02/03 02:24:04;;;;;;;;;;;;;;;;;;4972195;28;20385;-81
2023/02/03 02:26:30;;;;;;;;;;;;;;;;;;4951544;28;19997;-81
2023/02/03 02:28:56;;;;;;;;;;;;;;;;;;4949542;28;19918;-80
2023/02/03 02:31:23;;;;;;;;;;;;;;;;;;4969785;28;19929;-81
2023/02/03 02:33:49;;;;;;;;;;;;;;;;;;4955229;28;19969;-81
2023/02/03 02:36:15;;;;;;;;;;;;;;;;;;4944627;28;19977;-82
2023/02/03 02:38:41;;;;;;;;;;;;;;;;;;4962910;28;19925;-81
2023/02/03 02:41:08;;;;;;;;;;;;;;;;;;4944359;28;19989;-81
2023/02/03 02:43:34;;;;;;;;;;;;;;;;;;4940648;28;19937;-80
2023/02/03 02:46:00;;;;;;;;;;;;;;;;;;4968789;28;19925;-80
2023/02/03 02:48:26;;;;;;;;;;;;;;;;;;4948080;28;19922;-81
2023/02/03 02:50:53;;;;;;;;;;;;;;;;;;4937944;28;19918;-82
2023/02/03 02:53:19;;;;;;;;;;;;;;;;;;4981438;28;20655;-82
2023/02/03 02:55:45;;;;;;;;;;;;;;;;;;4933719;28;19919;-83
2023/02/03 02:58:11;;;;;;;;;;;;;;;;;;4958526;28;19937;-83
2023/02/03 03:00:37;;;;;;;;;;;;;;;;;;4945811;28;19926;-83
2023/02/03 03:03:04;;;;;;;;;;;;;;;;;;4946784;28;19925;-83
2023/02/03 03:05:30;;;;;;;;;;;;;;;;;;4958591;28;19914;-83
2023/02/03 03:07:56;;;;;;;;;;;;;;;;;;4944063;28;20351;-80
2023/02/03 03:10:23;;;;;;;;;;;;;;;;;;4944890;28;19926;-82
2023/02/03 03:12:49;;;;;;;;;;;;;;;;;;4945744;28;20310;-81
2023/02/03 03:15:15;;;;;;;;;;;;;;;;;;4933423;28;19921;-81
2023/02/03 03:17:41;;;;;;;;;;;;;;;;;;4971046;28;19936;-81
2023/02/03 03:20:08;;;;;;;;;;;;;;;;;;4983016;28;19925;-82
2023/02/03 03:22:34;;;;;;;;;;;;;;;;;;4982545;28;20646;-81
2023/02/03 03:25:00;;;;;;;;;;;;;;;;;;4964962;28;19987;-81
2023/02/03 03:27:26;;;;;;;;;;;;;;;;;;4964649;28;19922;-82
2023/02/03 03:29:52;;;;;;;;;;;;;;;;;;4971771;28;19921;-81
2023/02/03 03:32:19;;;;;;;;;;;;;;;;;;4969223;28;19930;-82
2023/02/03 03:34:45;;;;;;;;;;;;;;;;;;4968504;28;19989;-82
2023/02/03 03:37:11;;;;;;;;;;;;;;;;;;4969372;28;19929;-82
2023/02/03 03:39:37;;;;;;;;;;;;;;;;;;4952901;28;19984;-82
2023/02/03 03:42:04;;;;;;;;;;;;;;;;;;4958745;28;20421;-81
2023/02/03 03:44:30;;;;;;;;;;;;;;;;;;4982994;28;19918;-82
2023/02/03 03:46:56;;;;;;;;;;;;;;;;;;4967202;28;19921;-82
2023/02/03 03:49:22;;;;;;;;;;;;;;;;;;4965242;28;20385;-82
2023/02/03 03:51:49;;;;;;;;;;;;;;;;;;4982412;28;19922;-82
2023/02/03 03:54:15;;;;;;;;;;;;;;;;;;4965882;28;19918;-81
2023/02/03 03:56:41;;;;;;;;;;;;;;;;;;4960924;28;19914;-81
2023/02/03 03:59:07;;;;;;;;;;;;;;;;;;4972206;28;20004;-80
2023/02/03 04:01:33;;;;;;;;;;;;;;;;;;4960643;28;19925;-80
2023/02/03 04:04:00;;;;;;;;;;;;;;;;;;4969589;28;19917;-81
2023/02/03 04:06:26;;;;;;;;;;;;;;;;;;4954186;28;19922;-81
2023/02/03 04:08:52;;;;;;;;;;;;;;;;;;4959728;28;21515;-82
2023/02/03 04:14:03;;;;;;;;;;;;;;;;;;4980718;28;19922;-82
2023/02/03 04:16:30;;;;;;;;;;;;;;;;;;4939927;28;20370;-82
2023/02/03 04:18:56;;;;;;;;;;;;;;;;;;4950537;28;19921;-83
2023/02/03 04:21:22;;;;;;;;;;;;;;;;;;4942560;28;19926;-82
2023/02/03 04:23:50;;;;;;;;;;;;;;;;;;4954164;28;19922;-82
2023/02/03 04:26:16;;;;;;;;;;;;;;;;;;4965363;28;19984;-83
2023/02/03 04:28:43;;;;;;;;;;;;;;;;;;4948499;28;20018;-83
2023/02/03 04:31:09;;;;;;;;;;;;;;;;;;4934479;28;19923;-83
2023/02/03 04:33:35;;;;;;;;;;;;;;;;;;4961243;28;20029;-82
2023/02/03 04:36:01;;;;;;;;;;;;;;;;;;4946387;28;19918;-83
2023/02/03 04:38:28;;;;;;;;;;;;;;;;;;4945466;28;19922;-83
2023/02/03 04:40:54;;;;;;;;;;;;;;;;;;4942452;28;19926;-83
2023/02/03 04:43:20;;;;;;;;;;;;;;;;;;4939823;28;19918;-83
2023/02/03 04:45:46;;;;;;;;;;;;;;;;;;4934124;29;19926;-83
2023/02/03 04:48:13;;;;;;;;;;;;;;;;;;4946015;28;19918;-84
2023/02/03 04:50:39;;;;;;;;;;;;;;;;;;4948895;28;19918;-82
2023/02/03 04:53:05;;;;;;;;;;;;;;;;;;4965025;28;19951;-83
2023/02/03 04:55:31;;;;;;;;;;;;;;;;;;4948595;28;19981;-83
2023/02/03 04:57:58;;;;;;;;;;;;;;;;;;4957396;28;19922;-83
2023/02/03 05:00:24;;;;;;;;;;;;;;;;;;4967929;28;19930;-82
2023/02/03 05:02:50;;;;;;;;;;;;;;;;;;4940344;28;19926;-82
2023/02/03 05:05:16;;;;;;;;;;;;;;;;;;4927053;28;19918;-82
2023/02/03 05:07:42;;;;;;;;;;;;;;;;;;4945357;28;19914;-82
2023/02/03 05:10:09;;;;;;;;;;;;;;;;;;4939721;28;19924;-82
2023/02/03 05:12:35;;;;;;;;;;;;;;;;;;4949512;28;19925;-81
2023/02/03 05:15:01;;;;;;;;;;;;;;;;;;4948279;28;19921;-82
2023/02/03 05:17:27;;;;;;;;;;;;;;;;;;4980703;28;19941;-82
2023/02/03 05:19:54;;;;;;;;;;;;;;;;;;4979233;28;19996;-82
2023/02/03 05:22:20;;;;;;;;;;;;;;;;;;4943303;28;19929;-82
2023/02/03 05:24:46;;;;;;;;;;;;;;;;;;4949965;28;19927;-81
2023/02/03 05:27:12;;;;;;;;;;;;;;;;;;4957723;28;19914;-83
2023/02/03 05:29:39;;;;;;;;;;;;;;;;;;4955992;28;19918;-79
2023/02/03 05:32:05;;;;;;;;;;;;;;;;;;4981628;28;19928;-81
2023/02/03 05:34:31;;;;;;;;;;;;;;;;;;4960730;28;20460;-81
2023/02/03 05:36:57;;;;;;;;;;;;;;;;;;4953099;28;19965;-82
2023/02/03 05:39:24;;;;;;;;;;;;;;;;;;4969110;28;19945;-81
2023/02/03 05:41:53;;;;;;;;;;;;;;;;;;4967024;28;21456;-81
2023/02/03 05:44:19;;;;;;;;;;;;;;;;;;4973430;28;19922;-82
2023/02/03 05:46:45;;;;;;;;;;;;;;;;;;4960988;28;20027;-82
2023/02/03 05:49:11;;;;;;;;;;;;;;;;;;4948962;28;19926;-82
2023/02/03 05:51:41;;;;;;;;;;;;;;;;;;4989830;28;19922;-82
2023/02/03 05:54:07;;;;;;;;;;;;;;;;;;4978851;28;19922;-81
2023/02/03 05:56:34;;;;;;;;;;;;;;;;;;4944020;28;19917;-81
2023/02/03 05:59:00;;;;;;;;;;;;;;;;;;4974818;28;19918;-82
2023/02/03 06:01:26;;;;;;;;;;;;;;;;;;4967435;28;19938;-85
2023/02/03 06:03:53;;;;;;;;;;;;;;;;;;4954360;28;19926;-82
2023/02/03 06:06:19;;;;;;;;;;;;;;;;;;4970647;28;19918;-82
2023/02/03 06:08:45;;;;;;;;;;;;;;;;;;4954440;28;19922;-82
2023/02/03 06:11:11;;;;;;;;;;;;;;;;;;4967033;28;19928;-82
2023/02/03 06:13:38;;;;;;;;;;;;;;;;;;4953458;28;19934;-82
2023/02/03 06:16:04;;;;;;;;;;;;;;;;;;4990461;28;19930;-82
2023/02/03 06:18:30;;;;;;;;;;;;;;;;;;4967936;28;19922;-81
2023/02/03 06:20:57;;;;;;;;;;;;;;;;;;4965887;28;19936;-80
2023/02/03 06:23:23;;;;;;;;;;;;;;;;;;4967714;28;20362;-84
2023/02/03 06:25:49;;;;;;;;;;;;;;;;;;4978955;28;19928;-83
2023/02/03 06:28:15;;;;;;;;;;;;;;;;;;4975193;28;20397;-82
2023/02/03 06:30:42;;;;;;;;;;;;;;;;;;4950640;28;20401;-81
2023/02/03 06:33:08;;;;;;;;;;;;;;;;;;4976321;28;20262;-83
2023/02/03 06:35:34;;;;;;;;;;;;;;;;;;4970749;28;20373;-82
2023/02/03 06:38:00;;;;;;;;;;;;;;;;;;4977147;28;20490;-85
2023/02/03 06:40:27;;;;;;;;;;;;;;;;;;4966054;28;19936;-83
2023/02/03 06:42:53;;;;;;;;;;;;;;;;;;4951878;28;20297;-83
2023/02/03 06:45:19;;;;;;;;;;;;;;;;;;4960805;28;19945;-83
2023/02/03 06:47:45;;;;;;;;;;;;;;;;;;4962130;28;19972;-82
2023/02/03 06:50:12;;;;;;;;;;;;;;;;;;4956085;28;19925;-82
2023/02/03 06:52:38;;;;;;;;;;;;;;;;;;4963427;28;19918;-81
2023/02/03 06:55:05;;;;;;;;;;;;;;;;;;4977126;28;19922;-82
2023/02/03 06:57:32;;;;;;;;;;;;;;;;;;4973428;28;20389;-82
2023/02/03 06:59:58;;;;;;;;;;;;;;;;;;4984059;28;19925;-82
2023/02/03 07:02:24;;;;;;;;;;;;;;;;;;4958250;28;19926;-82
2023/02/03 07:04:50;;;;;;;;;;;;;;;;;;4972756;28;20305;-82
2023/02/03 07:07:16;;;;;;;;;;;;;;;;;;4947627;28;20468;-81
2023/02/03 07:09:43;;;;;;;;;;;;;;;;;;4958644;28;19940;-80
2023/02/03 07:12:09;;;;;;;;;;;;;;;;;;4968132;28;19921;-81
2023/02/03 07:14:35;;;;;;;;;;;;;;;;;;4966831;28;19921;-82
2023/02/03 07:17:01;;;;;;;;;;;;;;;;;;4954700;28;19936;-83
2023/02/03 07:19:28;;;;;;;;;;;;;;;;;;4968654;28;20615;-82
2023/02/03 07:21:54;;;;;;;;;;;;;;;;;;4957642;28;19933;-83
2023/02/03 07:24:20;;;;;;;;;;;;;;;;;;4961289;28;19929;-82
2023/02/03 07:26:47;;;;;;;;;;;;;;;;;;4968323;28;19918;-82
2023/02/03 07:29:13;;;;;;;;;;;;;;;;;;4957630;28;19982;-83
2023/02/03 07:31:39;;;;;;;;;;;;;;;;;;4963588;28;19921;-83
2023/02/03 07:34:14;;;;;;;;;;;;;;;;;;4962593;28;20362;-81
2023/02/03 07:36:41;;;;;;;;;;;;;;;;;;4959934;28;20064;-81
2023/02/03 07:39:07;;;;;;;;;;;;;;;;;;4976132;28;20437;-81
2023/02/03 07:41:33;;;;;;;;;;;;;;;;;;4939299;28;19931;-81
2023/02/03 07:44:00;;;;;;;;;;;;;;;;;;4960995;28;19930;-81
2023/02/03 07:46:26;;;;;;;;;;;;;;;;;;4951404;28;19944;-80
2023/02/03 07:48:52;;;;;;;;;;;;;;;;;;4979246;28;19918;-83
2023/02/03 07:51:18;;;;;;;;;;;;;;;;;;4963223;28;19918;-80
2023/02/03 07:53:44;;;;;;;;;;;;;;;;;;4955068;28;19918;-80
2023/02/03 07:56:11;;;;;;;;;;;;;;;;;;4951822;28;19969;-79
2023/02/03 07:58:37;;;;;;;;;;;;;;;;;;4954604;28;19926;-79
2023/02/03 08:01:03;;;;;;;;;;;;;;;;;;4973675;28;19922;-79
2023/02/03 08:03:29;;;;;;;;;;;;;;;;;;4967673;28;19926;-79
2023/02/03 08:05:56;;;;;;;;;;;;;;;;;;4971103;28;20007;-79
2023/02/03 08:08:22;;;;;;;;;;;;;;;;;;4963277;28;20033;-80
2023/02/03 08:10:48;;;;;;;;;;;;;;;;;;4980349;28;19952;-82
2023/02/03 08:13:14;;;;;;;;;;;;;;;;;;4965435;28;19917;-80
2023/02/03 08:15:41;;;;;;;;;;;;;;;;;;4977352;28;19998;-80
2023/02/03 08:18:08;;;;;;;;;;;;;;;;;;4961325;28;19917;-80
2023/02/03 08:20:34;;;;;;;;;;;;;;;;;;4963920;28;19930;-79
2023/02/03 08:23:01;;;;;;;;;;;;;;;;;;4965124;28;19995;-81
2023/02/03 08:25:27;;;;;;;;;;;;;;;;;;4958427;28;19926;-80
2023/02/03 08:27:53;;;;;;;;;;;;;;;;;;4947239;28;19921;-79
2023/02/03 08:30:19;;;;;;;;;;;;;;;;;;4964113;28;19925;-80
2023/02/03 08:32:48;;;;;;;;;;;;;;;;;;4948120;28;19915;-80
2023/02/03 08:35:14;;;;;;;;;;;;;;;;;;4963206;28;19922;-80
2023/02/03 08:37:40;;;;;;;;;;;;;;;;;;4976003;28;19994;-80
2023/02/03 08:40:06;;;;;;;;;;;;;;;;;;4959385;28;19930;-82
2023/02/03 08:42:33;;;;;;;;;;;;;;;;;;4961734;28;20012;-81
2023/02/03 08:44:59;;;;;;;;;;;;;;;;;;4948807;28;19929;-81
2023/02/03 08:47:25;;;;;;;;;;;;;;;;;;4973379;28;19989;-81
2023/02/03 08:49:51;;;;;;;;;;;;;;;;;;4954137;28;20426;-80
2023/02/03 08:52:18;;;;;;;;;;;;;;;;;;4955697;28;20346;-81
2023/02/03 08:54:44;;;;;;;;;;;;;;;;;;4961347;28;20488;-80
2023/02/03 08:57:10;;;;;;;;;;;;;;;;;;4972788;28;20381;-80
2023/02/03 08:59:36;;;;;;;;;;;;;;;;;;4956718;28;19976;-80
2023/02/03 09:02:03;;;;;;;;;;;;;;;;;;4961001;28;19922;-81
2023/02/03 09:04:29;;;;;;;;;;;;;;;;;;4957958;28;19949;-80
2023/02/03 09:06:55;;;;;;;;;;;;;;;;;;4971644;28;20401;-80
2023/02/03 09:09:22;;;;;;;;;;;;;;;;;;4968991;28;19921;-80
2023/02/03 09:11:48;;;;;;;;;;;;;;;;;;4953148;28;19922;-81
2023/02/03 09:14:14;;;;;;;;;;;;;;;;;;4955666;28;20385;-82
2023/02/03 09:16:43;;;;;;;;;;;;;;;;;;4967928;28;20000;-79
2023/02/03 09:19:09;;;;;;;;;;;;;;;;;;4958505;28;20290;-80
2023/02/03 09:21:36;;;;;;;;;;;;;;;;;;4951681;28;19926;-79
2023/02/03 09:24:02;;;;;;;;;;;;;;;;;;4975182;28;19928;-82
2023/02/03 09:26:28;;;;;;;;;;;;;;;;;;4956793;28;19926;-82
2023/02/03 09:28:54;;;;;;;;;;;;;;;;;;4962220;28;20330;-82
2023/02/03 09:31:20;;;;;;;;;;;;;;;;;;4957232;28;19938;-80
2023/02/03 09:33:47;;;;;;;;;;;;;;;;;;4956542;28;19960;-80
2023/02/03 09:36:13;;;;;;;;;;;;;;;;;;4962460;28;20012;-80
2023/02/03 09:38:39;;;;;;;;;;;;;;;;;;4973996;28;19917;-81
2023/02/03 09:41:05;;;;;;;;;;;;;;;;;;4973035;28;20342;-80
2023/02/03 09:43:32;;;;;;;;;;;;;;;;;;4965678;28;20375;-78
2023/02/03 09:45:58;;;;;;;;;;;;;;;;;;4966820;28;19929;-81
2023/02/03 09:48:24;;;;;;;;;;;;;;;;;;4965198;28;20328;-80
2023/02/03 09:50:50;;;;;;;;;;;;;;;;;;4958925;28;19969;-80
2023/02/03 09:53:17;;;;;;;;;;;;;;;;;;4967127;28;19929;-80
2023/02/03 09:55:43;;;;;;;;;;;;;;;;;;4954204;28;20055;-81
2023/02/03 09:58:11;;;;;;;;;;;;;;;;;;4961165;28;19926;-80
2023/02/03 10:00:37;;;;;;;;;;;;;;;;;;4972446;28;20408;-80
2023/02/03 10:03:03;;;;;;;;;;;;;;;;;;4963822;28;20394;-80
2023/02/03 10:05:30;;;;;;;;;;;;;;;;;;4969014;28;19922;-81
2023/02/03 10:07:56;;;;;;;;;;;;;;;;;;4975006;28;19925;-81
2023/02/03 10:10:22;;;;;;;;;;;;;;;;;;4997756;28;19922;-80
2023/02/03 10:12:48;;;;;;;;;;;;;;;;;;4991502;28;19925;-80
2023/02/03 10:15:15;;;;;;;;;;;;;;;;;;4977706;28;19945;-80
2023/02/03 10:17:41;;;;;;;;;;;;;;;;;;4978413;28;20543;-80
2023/02/03 10:20:07;;;;;;;;;;;;;;;;;;4979521;28;19921;-81
2023/02/03 10:22:33;;;;;;;;;;;;;;;;;;4965564;28;20328;-81
2023/02/03 10:25:00;;;;;;;;;;;;;;;;;;4973142;28;19926;-81
2023/02/03 10:27:26;;;;;;;;;;;;;;;;;;4968397;28;19958;-81
2023/02/03 10:29:52;;;;;;;;;;;;;;;;;;4986795;28;20029;-80
2023/02/03 10:32:18;;;;;;;;;;;;;;;;;;4970824;28;20013;-81
2023/02/03 10:34:45;;;;;;;;;;;;;;;;;;4979350;28;20579;-82
2023/02/03 10:37:12;;;;;;;;;;;;;;;;;;4990357;28;19926;-82
2023/02/03 10:39:38;;;;;;;;;;;;;;;;;;4998118;28;19993;-81
2023/02/03 10:42:05;;;;;;;;;;;;;;;;;;4994669;28;19953;-81
2023/02/03 10:44:31;;;;;;;;;;;;;;;;;;4975595;28;20580;-81
2023/02/03 10:46:57;;;;;;;;;;;;;;;;;;4994569;28;20487;-82
2023/02/03 10:49:23;;;;;;;;;;;;;;;;;;4976000;28;19924;-80
2023/02/03 10:51:49;;;;;;;;;;;;;;;;;;4972305;28;20665;-80
2023/02/03 10:54:16;;;;;;;;;;;;;;;;;;4977719;28;19924;-81
2023/02/03 10:56:42;;;;;;;;;;;;;;;;;;4973479;28;19934;-82
2023/02/03 10:59:08;;;;;;;;;;;;;;;;;;4990532;28;19972;-81
2023/02/03 11:01:35;;;;;;;;;;;;;;;;;;4986980;28;19936;-80
2023/02/03 11:04:04;;;;;;;;;;;;;;;;;;4987936;28;20328;-81
2023/02/03 11:06:30;;;;;;;;;;;;;;;;;;4973298;28;19922;-81
2023/02/03 11:08:56;;;;;;;;;;;;;;;;;;4973945;28;19922;-82
2023/02/03 11:11:23;;;;;;;;;;;;;;;;;;4977489;28;19922;-81
2023/02/03 11:13:50;;;;;;;;;;;;;;;;;;4992325;28;20435;-82
2023/02/03 11:16:16;;;;;;;;;;;;;;;;;;4973801;28;19930;-83
2023/02/03 11:18:42;;;;;;;;;;;;;;;;;;4989743;28;19961;-83
2023/02/03 11:21:08;;;;;;;;;;;;;;;;;;4972133;28;19929;-85
2023/02/03 11:23:35;;;;;;;;;;;;;;;;;;4989830;28;19928;-85
2023/02/03 11:26:01;;;;;;;;;;;;;;;;;;4985500;28;19977;-82
2023/02/03 11:28:27;;;;;;;;;;;;;;;;;;4970334;28;19945;-80
2023/02/03 11:30:54;;;;;;;;;;;;;;;;;;4955187;28;19952;-81
2023/02/03 11:33:20;;;;;;;;;;;;;;;;;;4967823;28;19917;-80
2023/02/03 11:35:46;;;;;;;;;;;;;;;;;;4981265;28;19969;-79
2023/02/03 11:38:12;;;;;;;;;;;;;;;;;;4981977;28;19925;-84
2023/02/03 11:40:40;;;;;;;;;;;;;;;;;;4964554;28;20445;-79
2023/02/03 11:43:06;;;;;;;;;;;;;;;;;;4985134;28;19926;-79
2023/02/03 11:45:32;;;;;;;;;;;;;;;;;;4965710;28;20388;-79
2023/02/03 11:48:06;;;;;;;;;;;;;;;;;;4981534;28;20274;-82
2023/02/03 11:50:32;;;;;;;;;;;;;;;;;;4987132;28;19957;-83
2023/02/03 11:52:59;;;;;;;;;;;;;;;;;;4991804;28;19923;-86
2023/02/03 11:55:25;;;;;;;;;;;;;;;;;;4969664;28;20434;-89
2023/02/03 11:57:58;;;;;;;;;;;;;;;;;;4972542;28;19932;-80
2023/02/03 12:00:27;;;;;;;;;;;;;;;;;;4970106;28;19932;-81
2023/02/03 12:02:54;;;;;;;;;;;;;;;;;;4971902;28;19926;-85
2023/02/03 12:05:20;;;;;;;;;;;;;;;;;;4995014;28;20448;-80
2023/02/03 12:07:46;;;;;;;;;;;;;;;;;;4978371;28;20427;-79
2023/02/03 12:10:12;;;;;;;;;;;;;;;;;;4979442;28;19926;-83
2023/02/03 12:12:38;;;;;;;;;;;;;;;;;;4993403;28;19925;-79
2023/02/03 12:15:05;;;;;;;;;;;;;;;;;;4977785;28;24813;-80
2023/02/03 12:17:31;;;;;;;;;;;;;;;;;;4992414;28;19943;-80
2023/02/03 12:19:58;;;;;;;;;;;;;;;;;;4976147;28;19954;-80
2023/02/03 12:22:24;;;;;;;;;;;;;;;;;;4964878;28;19933;-80
2023/02/03 12:24:52;;;;;;;;;;;;;;;;;;4992870;28;19921;-79
2023/02/03 12:27:18;;;;;;;;;;;;;;;;;;4986907;28;19922;-80
2023/02/03 12:29:44;;;;;;;;;;;;;;;;;;4980658;28;19917;-79
2023/02/03 12:32:10;;;;;;;;;;;;;;;;;;4989834;28;19926;-80
2023/02/03 12:34:37;;;;;;;;;;;;;;;;;;4976180;28;20456;-80
2023/02/03 12:37:03;;;;;;;;;;;;;;;;;;4968011;28;19926;-80
2023/02/03 12:39:29;;;;;;;;;;;;;;;;;;4980862;28;19929;-80
2023/02/03 12:41:55;;;;;;;;;;;;;;;;;;4960782;28;19930;-80
2023/02/03 12:44:22;;;;;;;;;;;;;;;;;;4974155;28;20388;-79
2023/02/03 12:46:48;;;;;;;;;;;;;;;;;;4992266;28;19926;-78
2023/02/03 12:49:14;;;;;;;;;;;;;;;;;;4990838;28;20009;-79
2023/02/03 12:51:40;;;;;;;;;;;;;;;;;;4985858;28;19948;-79
2023/02/03 12:54:07;;;;;;;;;;;;;;;;;;4988745;28;20373;-80
2023/02/03 12:56:33;;;;;;;;;;;;;;;;;;4972450;28;20453;-79
2023/02/03 12:58:59;;;;;;;;;;;;;;;;;;4972306;28;20444;-80
2023/02/03 13:01:25;;;;;;;;;;;;;;;;;;4978401;28;19929;-79
2023/02/03 13:03:51;;;;;;;;;;;;;;;;;;4985141;28;19918;-79
2023/02/03 13:06:18;;;;;;;;;;;;;;;;;;4973109;28;19926;-80
2023/02/03 13:08:44;;;;;;;;;;;;;;;;;;4973713;28;19917;-80
2023/02/03 13:11:10;;;;;;;;;;;;;;;;;;4955771;28;19989;-80
2023/02/03 13:13:37;;;;;;;;;;;;;;;;;;4986731;28;19925;-81
2023/02/03 13:16:03;;;;;;;;;;;;;;;;;;4973732;28;19929;-80
2023/02/03 13:18:29;;;;;;;;;;;;;;;;;;4972119;28;19952;-77
2023/02/03 13:20:55;;;;;;;;;;;;;;;;;;4968742;28;19925;-78
2023/02/03 13:23:22;;;;;;;;;;;;;;;;;;4967434;28;20341;-78
2023/02/03 13:25:48;;;;;;;;;;;;;;;;;;4982935;28;19922;-79
2023/02/03 13:28:14;;;;;;;;;;;;;;;;;;4985673;28;19972;-77
2023/02/03 13:30:40;;;;;;;;;;;;;;;;;;4975131;28;19918;-78
2023/02/03 13:33:07;;;;;;;;;;;;;;;;;;4974156;28;19929;-79
2023/02/03 13:35:33;;;;;;;;;;;;;;;;;;4985752;28;20445;-79
2023/02/03 13:37:59;;;;;;;;;;;;;;;;;;4989528;28;19917;-81
2023/02/03 13:40:25;;;;;;;;;;;;;;;;;;4984093;28;19922;-78
2023/02/03 13:42:52;;;;;;;;;;;;;;;;;;4967244;28;20771;-78
2023/02/03 13:45:18;;;;;;;;;;;;;;;;;;4987888;28;19917;-79
2023/02/03 13:47:44;;;;;;;;;;;;;;;;;;4977208;28;19922;-79
2023/02/03 13:50:10;;;;;;;;;;;;;;;;;;4993627;28;19921;-79
2023/02/03 13:52:36;;;;;;;;;;;;;;;;;;4979196;28;19933;-80
2023/02/03 13:55:03;;;;;;;;;;;;;;;;;;4990291;28;19980;-79
2023/02/03 13:57:30;;;;;;;;;;;;;;;;;;4980474;28;19921;-79
2023/02/03 13:59:56;;;;;;;;;;;;;;;;;;4978251;28;19918;-78
2023/02/03 14:02:23;;;;;;;;;;;;;;;;;;4983756;28;19929;-79
2023/02/03 14:04:49;;;;;;;;;;;;;;;;;;4979439;28;19918;-79
2023/02/03 14:07:15;;;;;;;;;;;;;;;;;;4982012;28;19961;-79
2023/02/03 14:09:41;;;;;;;;;;;;;;;;;;4999680;28;19928;-79
2023/02/03 14:12:08;;;;;;;;;;;;;;;;;;4980088;28;19922;-79
2023/02/03 14:14:34;;;;;;;;;;;;;;;;;;4992765;28;19918;-79
2023/02/03 14:17:00;;;;;;;;;;;;;;;;;;4998154;28;19933;-80
2023/02/03 14:19:26;;;;;;;;;;;;;;;;;;4993124;28;19917;-79
2023/02/03 14:21:53;;;;;;;;;;;;;;;;;;4993898;28;19929;-79
2023/02/03 14:24:22;;;;;;;;;;;;;;;;;;4980540;28;20005;-79
2023/02/03 14:26:48;;;;;;;;;;;;;;;;;;4992554;28;19921;-79
2023/02/03 14:29:14;;;;;;;;;;;;;;;;;;4983652;28;20278;-78
2023/02/03 14:31:41;;;;;;;;;;;;;;;;;;4976986;28;20393;-79
2023/02/03 14:34:11;;;;;;;;;;;;;;;;;;5000973;28;19922;-79
2023/02/03 14:36:38;;;;;;;;;;;;;;;;;;4996678;28;20428;-85
2023/02/03 14:39:04;;;;;;;;;;;;;;;;;;4980875;28;20185;-78
2023/02/03 14:41:30;;;;;;;;;;;;;;;;;;4997385;28;19976;-79
2023/02/03 14:43:56;;;;;;;;;;;;;;;;;;4976451;28;19928;-80
2023/02/03 14:46:23;;;;;;;;;;;;;;;;;;4999281;28;19921;-80
2023/02/03 14:48:50;;;;;;;;;;;;;;;;;;4975454;28;19921;-80
2023/02/03 14:51:17;;;;;;;;;;;;;;;;;;4997969;28;19918;-79
2023/02/03 14:53:43;;;;;;;;;;;;;;;;;;4982113;28;19913;-79
2023/02/03 14:56:09;;;;;;;;;;;;;;;;;;4980809;28;19933;-80
2023/02/03 14:58:37;;;;;;;;;;;;;;;;;;4980195;28;19925;-80
2023/02/03 15:01:03;;;;;;;;;;;;;;;;;;4963136;28;20456;-80
2023/02/03 15:03:30;;;;;;;;;;;;;;;;;;4984953;28;19922;-79
2023/02/03 15:05:56;;;;;;;;;;;;;;;;;;4976964;28;19925;-79
2023/02/03 15:08:22;;;;;;;;;;;;;;;;;;4997606;28;20096;-79
2023/02/03 15:10:49;;;;;;;;;;;;;;;;;;4976126;28;19921;-83
2023/02/03 15:13:15;;;;;;;;;;;;;;;;;;4978707;28;20031;-78
2023/02/03 15:15:42;;;;;;;;;;;;;;;;;;4976062;28;19922;-78
2023/02/03 15:18:08;;;;;;;;;;;;;;;;;;4992714;28;19980;-79
2023/02/03 15:20:35;;;;;;;;;;;;;;;;;;4994500;28;19918;-79
2023/02/03 15:23:01;;;;;;;;;;;;;;;;;;4988068;28;19929;-79
2023/02/03 15:25:28;;;;;;;;;;;;;;;;;;4996532;28;20348;-79
2023/02/03 15:27:54;;;;;;;;;;;;;;;;;;4986930;28;19977;-79
2023/02/03 15:30:20;;;;;;;;;;;;;;;;;;4978114;28;19948;-78
2023/02/03 15:32:47;;;;;;;;;;;;;;;;;;4990163;28;19922;-78
2023/02/03 15:35:13;;;;;;;;;;;;;;;;;;4977169;28;20451;-79
2023/02/03 15:37:39;;;;;;;;;;;;;;;;;;4958178;28;20006;-81
2023/02/03 15:40:05;;;;;;;;;;;;;;;;;;4983342;28;19929;-79
2023/02/03 15:42:32;;;;;;;;;;;;;;;;;;4965382;28;19926;-80
2023/02/03 15:44:58;;;;;;;;;;;;;;;;;;4956142;28;19922;-81
2023/02/03 15:47:24;;;;;;;;;;;;;;;;;;4971095;28;19925;-81
2023/02/03 15:49:50;;;;;;;;;;;;;;;;;;4979463;28;19922;-80
2023/02/03 15:52:16;;;;;;;;;;;;;;;;;;4971151;28;19929;-79
2023/02/03 15:54:44;;;;;;;;;;;;;;;;;;4969410;28;19996;-82
2023/02/03 15:57:11;;;;;;;;;;;;;;;;;;4979931;28;19993;-80
2023/02/03 15:59:37;;;;;;;;;;;;;;;;;;4971599;28;20015;-80
2023/02/03 16:02:03;;;;;;;;;;;;;;;;;;4972753;28;20615;-78
2023/02/03 16:04:29;;;;;;;;;;;;;;;;;;4989149;28;20740;-81
2023/02/03 16:06:56;;;;;;;;;;;;;;;;;;4977027;28;19921;-78
2023/02/03 16:09:22;;;;;;;;;;;;;;;;;;4973024;28;19929;-82
2023/02/03 16:11:48;;;;;;;;;;;;;;;;;;4983017;28;19929;-81
2023/02/03 16:14:14;;;;;;;;;;;;;;;;;;4971318;28;19921;-81
2023/02/03 16:16:41;;;;;;;;;;;;;;;;;;4974504;28;19930;-81
2023/02/03 16:19:07;;;;;;;;;;;;;;;;;;4974620;28;20086;-80
2023/02/03 16:21:33;;;;;;;;;;;;;;;;;;4979505;28;19930;-81
2023/02/03 16:24:00;;;;;;;;;;;;;;;;;;4980245;28;19929;-78
2023/02/03 16:26:26;;;;;;;;;;;;;;;;;;4973944;28;19960;-80
2023/02/03 16:51:00;;;;;;;;;;;;;;;;;;4995058;28;19968;-88
2023/02/03 16:53:26;;;;;;;;;;;;;;;;;;4959411;28;19922;-87
2023/02/03 16:55:53;;;;;;;;;;;;;;;;;;4972501;28;19932;-86
2023/02/03 16:58:20;;;;;;;;;;;;;;;;;;4967668;28;19953;-86
2023/02/03 17:00:46;;;;;;;;;;;;;;;;;;4965908;28;19933;-88
2023/02/03 17:03:13;;;;;;;;;;;;;;;;;;4991796;28;19921;-88